July 3, 2022

Time Code Weather Temp. Visibility Ceiling Wind METAR/SPECI
1:20 am
V
64 °F 6¼ mi+ 8,700 ft Var Var 2 kt METAR EDLV 022320Z AUTO VRB02KT 9999 BKN087/// 18/12 Q1017
12:50 am
V
63 °F 6¼ mi+ 8,800 ft Var 000° 0 kt METAR EDLV 022250Z AUTO 00000KT 9999 BKN088/// 17/12 Q1017
12:20 am
V
61 °F 6¼ mi+ - Var 000° 0 kt METAR EDLV 022220Z AUTO 00000KT 9999 NCD 16/13 Q1017

July 2, 2022

Time Code Weather Temp. Visibility Ceiling Wind METAR/SPECI
11:50 pm
V
63 °F 6¼ mi+ - Var Var 2 kt METAR EDLV 022150Z AUTO VRB02KT CAVOK 17/12 Q1018
11:20 pm
V
66 °F 6¼ mi+ - 270° 270° 1 kt METAR EDLV 022120Z 27001KT CAVOK 19/12 Q1018
10:50 pm
V
70 °F 6¼ mi+ - Var Var 1 kt METAR EDLV 022050Z VRB01KT CAVOK 21/11 Q1018
10:20 pm
V
72 °F 6¼ mi+ - Var Var 1 kt METAR EDLV 022020Z VRB01KT CAVOK 22/12 Q1018
9:50 pm
V
72 °F 6¼ mi+ - 330° 330° 3 kt METAR EDLV 021950Z 33003KT 300V360 CAVOK 22/12 Q1018
9:20 pm
V
72 °F 6¼ mi+ - 330° 330° 3 kt METAR EDLV 021920Z 33003KT 300V360 CAVOK 22/12 Q1018
8:50 pm
V
73 °F 6¼ mi+ - 310° 310° 4 kt METAR EDLV 021850Z 31004KT CAVOK 23/12 Q1018
8:20 pm
L
73 °F ¼ mi - 320° 320° 4 kt METAR EDLV 021820Z 32004KT 9999 0350 R27/P2000N NSC 23/11 Q1018
7:50 pm
V
75 °F 6¼ mi+ - 270° 270° 5 kt METAR EDLV 021750Z 27005KT 220V300 CAVOK 24/11 Q1018
7:20 pm
V
75 °F 6¼ mi+ - 270° 270° 5 kt METAR EDLV 021720Z 27005KT 190V320 CAVOK 24/11 Q1018
6:50 pm
V
77 °F 6¼ mi+ - 220° 220° 6 kt METAR EDLV 021650Z 22006KT 180V280 CAVOK 25/10 Q1018
6:20 pm
V
77 °F 6¼ mi+ - Var Var 5 kt METAR EDLV 021620Z VRB05KT CAVOK 25/10 Q1018
5:50 pm
V
79 °F 6¼ mi+ - 200° 200° 7 kt METAR EDLV 021550Z 20007KT 170V230 CAVOK 26/11 Q1019
5:20 pm
V
77 °F 6¼ mi+ - 190° 190° 7 kt METAR EDLV 021520Z 19007KT 150V230 CAVOK 25/10 Q1019
4:50 pm
V
77 °F 6¼ mi+ - 150° 150° 5 kt METAR EDLV 021450Z 15005KT 100V230 CAVOK 25/10 Q1019
4:20 pm
V
77 °F 6¼ mi+ - 180° 180° 6 kt METAR EDLV 021420Z 18006KT 130V220 CAVOK 25/10 Q1019
3:50 pm
V
77 °F 6¼ mi+ - 190° 190° 7 kt METAR EDLV 021350Z 19007KT 140V240 CAVOK 25/11 Q1020
3:20 pm
V
75 °F 6¼ mi+ - Var Var 5 kt METAR EDLV 021320Z VRB05KT CAVOK 24/08 Q1020
2:50 pm
V
75 °F 6¼ mi+ - 190° 190° 9 kt METAR EDLV 021250Z 19009KT 150V240 CAVOK 24/10 Q1020
2:20 pm
V
75 °F 6¼ mi+ - 220° 220° 7 kt METAR EDLV 021220Z 22007KT 160V250 CAVOK 24/10 Q1021
1:50 pm
V
73 °F 6¼ mi+ - 190° 190° 8 kt METAR EDLV 021150Z 19008KT 160V230 CAVOK 23/10 Q1021
1:20 pm
V
75 °F 6¼ mi+ - 220° 220° 7 kt METAR EDLV 021120Z 22007KT 170V260 CAVOK 24/09 Q1021
12:50 pm
V
73 °F 6¼ mi+ - 230° 230° 8 kt METAR EDLV 021050Z 23008KT 160V260 9999 23/08 Q1021
12:20 pm
V
72 °F 5⅝ mi - Var Var 7 kt METAR EDLV 021020Z VRB07KT 9000 NSC 22/10 Q1021
11:50 am
V
72 °F 6¼ mi+ - 180° 180° 7 kt METAR EDLV 020950Z 18007KT 110V220 9999 FEW048 22/11 Q1022
11:20 am
V
70 °F 6¼ mi+ - 200° 200° 7 kt METAR EDLV 020920Z 20007KT 160V250 CAVOK 21/11 Q1022
10:50 am
V
68 °F 6¼ mi+ - 200° 200° 6 kt METAR EDLV 020850Z 20006KT 170V230 CAVOK 20/11 Q1022
10:20 am
V
68 °F 6¼ mi+ - Var Var 4 kt METAR EDLV 020820Z VRB04KT CAVOK 20/11 Q1022
9:50 am
V
68 °F 6¼ mi+ - 140° 140° 4 kt METAR EDLV 020750Z 14004KT 100V190 CAVOK 20/13 Q1022
9:20 am
V
66 °F 6¼ mi+ - 140° 140° 4 kt METAR EDLV 020720Z 14004KT 110V180 CAVOK 19/12 Q1022
8:50 am
V
64 °F 6¼ mi+ - 160° 160° 4 kt METAR EDLV 020650Z 16004KT 130V230 CAVOK 18/12 Q1022
8:20 am
V
63 °F 6¼ mi+ - 180° 180° 4 kt METAR EDLV 020620Z 18004KT CAVOK 17/12 Q1022
7:50 am
V
61 °F 6¼ mi+ - 190° 190° 3 kt METAR EDLV 020550Z 19003KT 150V240 CAVOK 16/12 Q1022
7:20 am
V
59 °F 6¼ mi+ - 200° 200° 4 kt METAR EDLV 020520Z 20004KT CAVOK 15/12 Q1022
6:50 am
V
55 °F 6¼ mi+ - 200° 200° 4 kt METAR EDLV 020450Z 20004KT 170V230 CAVOK 13/12 Q1022
6:20 am
V
54 °F 6¼ mi+ - 200° 200° 4 kt METAR EDLV 020420Z 20004KT 170V230 CAVOK 12/10 Q1022
5:50 am
V
52 °F 6¼ mi+ - 180° 180° 4 kt METAR EDLV 020350Z 18004KT CAVOK 11/10 Q1022
5:20 am
V
52 °F 6¼ mi+ - 170° 170° 4 kt METAR EDLV 020320Z 17004KT CAVOK 11/10 Q1022
4:50 am
V
52 °F 6¼ mi+ - 170° 170° 4 kt METAR EDLV 020250Z 17004KT CAVOK 11/10 Q1022
4:20 am
V
52 °F 6¼ mi+ - Var Var 2 kt METAR EDLV 020220Z AUTO VRB02KT 9999 NCD 11/10 Q1022
3:50 am
V
52 °F 6¼ mi+ - 180° 180° 5 kt METAR EDLV 020150Z AUTO 18005KT 9999 NCD 11/10 Q1022
3:20 am
V
52 °F 6¼ mi+ - Var Var 2 kt METAR EDLV 020120Z AUTO VRB02KT 9999 NCD 11/10 Q1022
2:50 am
V
54 °F 6¼ mi+ - 170° 170° 5 kt METAR EDLV 020050Z AUTO 17005KT 9999 NCD 12/11 Q1022
2:20 am
V
54 °F 6¼ mi+ - 160° 160° 4 kt METAR EDLV 020020Z AUTO 16004KT 9999 NCD 12/11 Q1022
1:50 am
V
55 °F 6¼ mi+ - 140° 140° 3 kt METAR EDLV 012350Z AUTO 14003KT 9999 NCD 13/11 Q1022
1:20 am
V
55 °F 6¼ mi+ - 150° 150° 3 kt METAR EDLV 012320Z AUTO 15003KT 9999 NCD 13/11 Q1021
12:50 am
V
54 °F 6¼ mi+ - Var Var 2 kt METAR EDLV 012250Z AUTO VRB02KT 9999 NCD 12/10 Q1021
12:20 am
V
55 °F 6¼ mi+ - Var Var 2 kt METAR EDLV 012220Z AUTO VRB02KT 9999 FEW048/// 13/11 Q1021

July 1, 2022

Time Code Weather Temp. Visibility Ceiling Wind METAR/SPECI
11:50 pm
V
57 °F 5⅝ mi - 130° 130° 2 kt METAR EDLV 012150Z AUTO 13002KT 9000 FEW076/// 14/11 Q1021
11:20 pm
V
57 °F 6¼ mi+ - 140° 140° 2 kt METAR EDLV 012120Z 14002KT CAVOK 14/11 Q1021
10:50 pm
V
57 °F 6¼ mi+ - Var Var 2 kt METAR EDLV 012050Z VRB02KT CAVOK 14/11 Q1021
10:20 pm
V
59 °F 5⅝ mi - 120° 120° 2 kt METAR EDLV 012020Z 12002KT 9000 NSC 15/11 Q1021
9:50 pm
V
61 °F 6¼ mi+ - Var Var 1 kt METAR EDLV 011950Z VRB01KT CAVOK 16/11 Q1020
9:20 pm
V
63 °F 6¼ mi+ - Var Var 2 kt METAR EDLV 011920Z VRB02KT CAVOK 17/11 Q1020
8:50 pm
V
64 °F 6¼ mi+ - 280° 280° 6 kt METAR EDLV 011850Z 28006KT CAVOK 18/11 Q1020
8:20 pm
V
66 °F 6¼ mi+ - 280° 280° 8 kt METAR EDLV 011820Z 28008KT CAVOK 19/10 Q1020
7:50 pm
V
66 °F 6¼ mi+ - 290° 290° 7 kt METAR EDLV 011750Z 29007KT 240V320 CAVOK 19/10 Q1020
7:20 pm
V
66 °F 6¼ mi+ - 280° 280° 7 kt METAR EDLV 011720Z 28007KT CAVOK 19/11 Q1019
6:50 pm
V
66 °F 6¼ mi+ - 280° 280° 11 kt METAR EDLV 011650Z 28011KT 250V310 CAVOK 19/11 Q1019
6:20 pm
V
68 °F 6¼ mi+ - 260° 260° 12 kt METAR EDLV 011620Z 26012KT CAVOK 20/09 Q1019
5:50 pm
V
68 °F 6¼ mi+ - 250° 250° 8 kt METAR EDLV 011550Z 25008KT CAVOK 20/09 Q1019
5:20 pm
V
68 °F 6¼ mi+ - 230° 230° 12 kt METAR EDLV 011520Z 23012KT 190V260 CAVOK 20/09 Q1018
4:50 pm
V
72 °F 6¼ mi+ - 250° 250° 10 kt METAR EDLV 011450Z 25010KT 200V280 CAVOK 22/11 Q1018
4:20 pm
V
68 °F 6¼ mi+ - 240° 240° 11 kt METAR EDLV 011420Z 24011KT 210V270 CAVOK 20/09 Q1018
3:50 pm
V
68 °F 6¼ mi+ - 220° 220° 10 kt METAR EDLV 011350Z 22010KT 200V260 9999 SCT048 20/10 Q1018
3:20 pm
V
70 °F 6¼ mi+ - 240° 240° 9 kt METAR EDLV 011320Z 24009KT 210V280 9999 FEW047 21/11 Q1018
2:50 pm
V
68 °F 6¼ mi+ - 240° 240° 8 kt METAR EDLV 011250Z 24008KT 200V280 9999 SCT047 20/11 Q1018
2:20 pm
V
68 °F 6¼ mi+ - 260° 260° 8 kt METAR EDLV 011220Z 26008KT 220V290 9999 SCT046 20/09 Q1018
1:50 pm
V
66 °F 6¼ mi+ - 240° 240° 8 kt METAR EDLV 011150Z 24008KT 210V270 9999 SCT044 19/10 Q1018
1:20 pm
V
66 °F 6¼ mi+ - 240° 240° 10 kt METAR EDLV 011120Z 24010KT 210V290 9999 SCT042 19/09 Q1018
12:50 pm
V
64 °F 6¼ mi+ - 230° 230° 11 kt METAR EDLV 011050Z 23011KT 190V280 9999 SCT036 18/09 Q1018
12:20 pm
V
66 °F 6¼ mi+ - 230° 230° 9 kt METAR EDLV 011020Z 23009KT 200V270 9999 SCT034 19/11 Q1018
11:50 am
V
64 °F 6¼ mi+ - 240° 240° 8 kt METAR EDLV 010950Z 24008KT 210V280 9999 FEW031 18/10 Q1018
11:20 am
V
63 °F 6¼ mi+ - 240° 240° 10 kt METAR EDLV 010920Z 24010KT CAVOK 17/11 Q1018
10:50 am
V
63 °F 6¼ mi+ - 250° 250° 10 kt METAR EDLV 010850Z 25010KT 190V280 9999 FEW023 17/12 Q1018
10:20 am
V
61 °F 6¼ mi+ - 240° 240° 8 kt METAR EDLV 010820Z 24008KT 200V270 9999 FEW018 16/11 Q1017
9:50 am
V
59 °F 6¼ mi+ - 240° 240° 9 kt METAR EDLV 010750Z 24009KT 9999 FEW013 15/12 Q1017
9:20 am
V
59 °F 6¼ mi+ - 230° 230° 9 kt METAR EDLV 010720Z 23009KT 200V260 9999 FEW010 SCT012 15/12 Q1017
8:50 am
V
57 °F 6¼ mi+ - 220° 220° 7 kt METAR EDLV 010650Z 22007KT 190V250 9999 FEW010 14/12 Q1017
8:20 am
I
57 °F 6¼ mi+ 900 ft 230° 230° 6 kt METAR EDLV 010620Z 23006KT 9999 BKN009 14/12 Q1017
7:50 am
M
57 °F 6¼ mi+ 1,000 ft 230° 230° 6 kt METAR EDLV 010550Z 23006KT 190V250 9999 SCT008 BKN010 14/12 Q1016
7:20 am
I
57 °F 6¼ mi+ 800 ft 220° 220° 7 kt METAR EDLV 010520Z 22007KT 9999 BKN008 14/12 Q1016
6:50 am
M
55 °F 6¼ mi+ 1,000 ft 200° 200° 6 kt METAR EDLV 010450Z 20006KT 9999 SCT008 BKN010 13/12 Q1016
6:20 am
M
55 °F 6¼ mi+ 1,200 ft 210° 210° 7 kt METAR EDLV 010420Z 21007KT 9999 FEW008 BKN012 13/12 Q1016
5:50 am
I
55 °F 6¼ mi+ 800 ft 220° 220° 6 kt METAR EDLV 010350Z 22006KT 9999 OVC008 13/12 Q1016
5:20 am
I
55 °F 5⅝ mi 900 ft 240° 240° 7 kt METAR EDLV 010320Z 24007KT 9000 OVC009 13/12 Q1016
4:50 am
I
55 °F 6¼ mi+ 800 ft 240° 240° 7 kt METAR EDLV 010250Z AUTO 24007KT 9999 OVC008/// 13/12 Q1015
4:20 am
I
55 °F 5⅝ mi 700 ft 240° 240° 6 kt METAR EDLV 010220Z AUTO 24006KT 210V280 9000 OVC007/// 13/12 Q1015
3:50 am
I
55 °F 5⅝ mi 700 ft 230° 230° 7 kt METAR EDLV 010150Z AUTO 23007KT 210V270 9000 BKN007/// 13/13 Q1015
3:20 am
V
55 °F 5⅝ mi 19,000 ft 230° 230° 8 kt METAR EDLV 010120Z AUTO 23008KT 9000 SCT007/// BKN190/// 13/13 Q1015
2:50 am
I
57 °F 3¾ mi 700 ft 240° 240° 6 kt METAR EDLV 010050Z AUTO 24006KT 6000 BKN007/// BKN035/// 14/13 Q1015
2:20 am
I
57 °F 3⅛ mi 700 ft 240° 240° 7 kt METAR EDLV 010020Z AUTO 24007KT 5000 BKN007/// BKN035/// BKN092/// 14/13 Q1015
1:50 am
I
57 °F 3¾ mi 800 ft 240° 240° 6 kt METAR EDLV 302350Z AUTO 24006KT 6000 FEW006/// BKN008/// OVC026/// 14/13 Q1015
1:20 am
I
57 °F 5⅝ mi 600 ft 240° 240° 9 kt METAR EDLV 302320Z AUTO 24009KT 9000 BKN006/// BKN024/// OVC072/// 14/13 Q1015
12:50 am
M
57 °F 6¼ mi+ 2,800 ft 240° 240° 7 kt METAR EDLV 302250Z AUTO 24007KT 210V270 9999 FEW008/// BKN028/// OVC071/// 14/13 Q1015
12:20 am
M
57 °F 6¼ mi+ 2,900 ft 240° 240° 7 kt METAR EDLV 302220Z AUTO 24007KT 9999 SCT007/// SCT019/// OVC029/// 14/13 Q1015

June 30, 2022

Time Code Weather Temp. Visibility Ceiling Wind METAR/SPECI
11:50 pm
M
57 °F 6¼ mi+ 1,200 ft 250° 250° 9 kt METAR EDLV 302150Z 25009KT 9999 SCT006 BKN012 14/13 Q1015
11:20 pm
V
57 °F 6¼ mi+ - 230° 230° 5 kt METAR EDLV 302120Z 23005KT 200V270 9999 SCT006 14/13 Q1014
10:50 pm
I
57 °F 6¼ mi+ 700 ft 280° 280° 4 kt METAR EDLV 302050Z 28004KT 260V320 9999 BKN007 BKN048 14/13 Q1014
10:20 pm
V
57 °F 6¼ mi+ - 300° 300° 5 kt METAR EDLV 302020Z 30005KT 9999 FEW007 14/13 Q1013
9:50 pm
V
57 °F 6¼ mi+ - 290° 290° 6 kt METAR EDLV 301950Z 29006KT 9999 FEW007 14/13 Q1013
9:20 pm
V
57 °F 5⅝ mi 4,100 ft 300° 300° 9 kt METAR EDLV 301920Z 30009KT 260V340 9000 -RA SCT006 BKN041 14/13 Q1012
8:50 pm
V
57 °F 6¼ mi+ - 280° 280° 11 kt METAR EDLV 301850Z 28011KT 260V330 9999 -RA SCT011 14/13 Q1013
8:20 pm
V
59 °F 6¼ mi+ - 290° 290° 14 - 25 kt METAR EDLV 301820Z 29014G25KT 260V320 9999 FEW010 15/13 Q1012
7:50 pm
M
61 °F 6¼ mi+ 1,100 ft 280° 280° 17 kt METAR EDLV 301750Z 28017KT 9999 FEW008 BKN011 16/14 Q1011 RESHRA
7:20 pm
M
61 °F 3⅛ mi 2,400 ft 260° 260° 19 - 31 kt METAR EDLV 301720Z 26019G31KT 230V300 5000 SHRA VCTS SCT006 BKN024CB 16/15 Q1011
6:50 pm
V
68 °F 6¼ mi+ - 290° 290° 11 kt METAR EDLV 301650Z 29011KT 260V330 9999 -RA VCTS FEW016CB 20/16 Q1009
6:20 pm
V
73 °F 6¼ mi+ - 300° 300° 12 kt METAR EDLV 301620Z 30012KT CAVOK 23/16 Q1008
5:50 pm
V
77 °F 6¼ mi+ - 310° 310° 8 - 18 kt METAR EDLV 301550Z 31008G18KT 270V350 CAVOK 25/17 Q1009
5:20 pm
V
81 °F 6¼ mi+ - 310° 310° 6 kt METAR EDLV 301520Z 31006KT 270V360 CAVOK 27/16 Q1009
4:50 pm
V
79 °F 6¼ mi+ - 300° 300° 7 kt METAR EDLV 301450Z 30007KT 270V350 CAVOK 26/17 Q1009
Older data

Download our app

Easy access to all aviation weather on your mobile phone and tablet.
With many features not available on the website, like offline support and a personal airport list.

We and third parties follow your internet behavior on our website with cookies. If you continue, we assume you agree with our cookie policy. Learn more